createdAt,value
2018-02-04T00:01:42.323Z,15.73
2018-02-04T00:04:09.738Z,17.52
2018-02-04T00:06:37.222Z,16.80
2018-02-04T00:09:04.630Z,14.15
2018-02-04T00:11:32.050Z,14.70
2018-02-04T00:13:59.484Z,13.07
2018-02-04T00:16:26.901Z,15.73
2018-02-04T00:18:54.316Z,10.45
2018-02-04T00:21:21.742Z,13.55
2018-02-04T00:23:49.158Z,16.30
2018-02-04T00:26:17.358Z,14.52
2018-02-04T00:28:45.579Z,26.87
2018-02-04T00:31:13.765Z,20.20
2018-02-04T00:33:41.225Z,16.98
2018-02-04T00:36:08.633Z,18.85
2018-02-04T00:38:37.551Z,16.85
2018-02-04T00:41:04.972Z,14.13
2018-02-04T00:43:32.375Z,16.55
2018-02-04T00:46:00.558Z,20.88
2018-02-04T00:48:28.077Z,19.87
2018-02-04T00:50:55.562Z,15.45
2018-02-04T00:53:22.975Z,16.17
2018-02-04T00:55:50.396Z,16.60
2018-02-04T00:58:17.804Z,17.17
2018-02-04T01:00:45.241Z,19.10
2018-02-04T01:03:12.666Z,19.98
2018-02-04T01:05:40.058Z,21.42
2018-02-04T01:08:07.469Z,18.65
2018-02-04T01:10:34.915Z,18.65
2018-02-04T01:13:02.324Z,17.45
2018-02-04T01:15:29.738Z,19.17
2018-02-04T01:17:57.161Z,16.77
2018-02-04T01:20:24.577Z,20.85
2018-02-04T01:22:52.012Z,23.02
2018-02-04T01:25:20.189Z,22.10
2018-02-04T01:27:48.386Z,22.65
2018-02-04T01:30:16.581Z,20.05
2018-02-04T01:32:44.782Z,23.45
2018-02-04T01:35:12.255Z,24.37
2018-02-04T01:37:39.673Z,27.45
2018-02-04T01:40:07.189Z,30.27
2018-02-04T01:42:34.606Z,25.52
2018-02-04T01:45:02.090Z,28.77
2018-02-04T01:47:29.612Z,28.33
2018-02-04T01:49:57.068Z,28.40
2018-02-04T01:52:24.486Z,24.92
2018-02-04T01:54:52.002Z,27.17
2018-02-04T01:57:19.424Z,27.40
2018-02-04T01:59:46.836Z,26.25
2018-02-04T02:02:14.262Z,27.92
2018-02-04T02:04:41.670Z,28.77
2018-02-04T02:07:09.085Z,29.30
2018-02-04T02:09:36.512Z,26.95
2018-02-04T02:12:03.938Z,32.83
2018-02-04T02:14:31.343Z,29.15
2018-02-04T02:16:58.772Z,28.27
2018-02-04T02:19:26.178Z,28.05
2018-02-04T02:21:53.594Z,29.50
2018-02-04T02:24:21.014Z,28.05
2018-02-04T02:26:48.488Z,31.23
2018-02-04T02:29:16.677Z,27.02
2018-02-04T02:31:44.093Z,29.25
2018-02-04T02:34:11.610Z,29.08
2018-02-04T02:36:39.026Z,27.87
2018-02-04T02:39:06.461Z,32.45
2018-02-04T02:41:33.923Z,28.55
2018-02-04T02:44:01.334Z,29.37
2018-02-04T02:46:28.770Z,32.75
2018-02-04T02:48:56.177Z,30.80
2018-02-04T02:51:23.691Z,31.10
2018-02-04T02:53:51.106Z,32.97
2018-02-04T02:56:18.524Z,31.70
2018-02-04T02:58:45.957Z,36.17
2018-02-04T03:01:14.133Z,36.42
2018-02-04T03:03:41.541Z,33.30
2018-02-04T03:06:08.961Z,31.15
2018-02-04T03:08:36.500Z,38.75
2018-02-04T03:11:03.967Z,36.13
2018-02-04T03:13:31.377Z,34.88
2018-02-04T03:15:58.802Z,35.72
2018-02-04T03:18:26.220Z,37.85
2018-02-04T03:20:53.624Z,32.88
2018-02-04T03:23:21.043Z,34.45
2018-02-04T03:25:48.453Z,34.50
2018-02-04T03:28:15.873Z,41.10
2018-02-04T03:30:43.395Z,22.45
2018-02-04T03:33:10.807Z,36.38
2018-02-04T03:35:38.229Z,35.20
2018-02-04T03:38:05.635Z,36.17
2018-02-04T03:40:33.049Z,36.75
2018-02-04T03:43:01.236Z,36.05
2018-02-04T03:45:29.417Z,34.75
2018-02-04T03:47:57.609Z,36.08
2018-02-04T03:50:25.782Z,35.58
2018-02-04T03:52:53.971Z,35.40
2018-02-04T03:55:22.146Z,34.03
2018-02-04T03:57:49.662Z,33.65
2018-02-04T04:00:17.074Z,33.38
2018-02-04T04:02:44.490Z,32.15
2018-02-04T04:05:11.913Z,36.55
2018-02-04T04:07:39.352Z,32.25
2018-02-04T04:10:06.769Z,32.63
2018-02-04T04:12:34.956Z,33.22
2018-02-04T04:15:03.179Z,34.63
2018-02-04T04:17:30.606Z,36.67
2018-02-04T04:19:58.820Z,35.47
2018-02-04T04:22:26.290Z,32.58
2018-02-04T04:24:53.759Z,37.00
2018-02-04T04:27:21.181Z,33.88
2018-02-04T04:29:48.602Z,32.67
2018-02-04T04:32:16.015Z,33.85
2018-02-04T04:34:43.434Z,36.63
2018-02-04T04:37:10.845Z,39.95
2018-02-04T04:39:38.363Z,35.83
2018-02-04T04:42:05.837Z,35.78
2018-02-04T04:44:33.255Z,36.33
2018-02-04T04:47:00.666Z,32.30
2018-02-04T04:49:28.089Z,36.50
2018-02-04T04:51:55.502Z,36.40
2018-02-04T04:54:22.925Z,40.65
2018-02-04T04:56:50.342Z,40.88
2018-02-04T04:59:17.759Z,33.67
2018-02-04T05:01:45.281Z,35.30
2018-02-04T05:04:13.447Z,32.60
2018-02-04T05:06:41.622Z,37.20
2018-02-04T05:09:09.797Z,35.00
2018-02-04T05:11:37.213Z,32.35
2018-02-04T05:14:04.630Z,28.12
2018-02-04T05:16:32.141Z,30.35
2018-02-04T05:18:59.549Z,27.20
2018-02-04T05:21:26.979Z,26.85
2018-02-04T05:23:54.385Z,25.77
2018-02-04T05:26:21.817Z,29.63
2018-02-04T05:28:49.247Z,28.92
2018-02-04T05:31:16.650Z,28.62
2018-02-04T05:33:44.066Z,30.67
2018-02-04T05:36:11.475Z,28.30
2018-02-04T05:38:38.890Z,33.03
2018-02-04T05:41:06.333Z,37.97
2018-02-04T05:43:33.785Z,36.90
2018-02-04T05:46:01.204Z,30.20
2018-02-04T05:48:28.630Z,34.15
2018-02-04T05:50:56.037Z,35.47
2018-02-04T05:53:23.558Z,34.38
2018-02-04T05:55:50.978Z,34.33
2018-02-04T05:58:18.401Z,32.00
2018-02-04T06:00:45.813Z,37.33
2018-02-04T06:03:13.236Z,34.90
2018-02-04T06:05:40.641Z,36.42
2018-02-04T06:08:08.053Z,35.80
2018-02-04T06:10:35.457Z,30.75
2018-02-04T06:13:02.910Z,34.72
2018-02-04T06:15:30.341Z,30.55
2018-02-04T06:17:58.520Z,30.98
2018-02-04T06:20:25.958Z,33.13
2018-02-04T06:22:53.381Z,31.87
2018-02-04T06:25:21.585Z,34.58
2018-02-04T06:27:49.068Z,33.42
2018-02-04T06:30:16.483Z,34.47
2018-02-04T06:32:43.890Z,36.28
2018-02-04T06:35:11.311Z,39.38
2018-02-04T06:37:38.832Z,35.35
2018-02-04T06:40:07.012Z,40.65
2018-02-04T06:42:34.482Z,38.00
2018-02-04T06:45:01.909Z,31.48
2018-02-04T06:47:29.319Z,35.40
2018-02-04T06:49:57.507Z,37.30
2018-02-04T06:52:25.698Z,33.85
2018-02-04T06:54:53.123Z,35.55
2018-02-04T06:57:20.529Z,39.88
2018-02-04T06:59:47.951Z,38.10
2018-02-04T07:02:15.413Z,34.08
2018-02-04T07:04:42.817Z,35.42
2018-02-04T07:07:11.044Z,35.90
2018-02-04T07:09:38.460Z,40.15
2018-02-04T07:12:05.981Z,34.88
2018-02-04T07:14:33.397Z,35.15
2018-02-04T07:17:00.925Z,38.47
2018-02-04T07:19:28.353Z,36.90
2018-02-04T07:21:56.532Z,33.50
2018-02-04T07:24:24.714Z,38.55
2018-02-04T07:26:52.948Z,36.13
2018-02-04T07:29:20.415Z,36.78
2018-02-04T07:31:47.831Z,34.67
2018-02-04T07:34:15.252Z,37.15
2018-02-04T07:36:42.847Z,37.28
2018-02-04T07:39:10.246Z,36.88
2018-02-04T07:41:37.676Z,35.08
2018-02-04T07:44:05.080Z,39.70
2018-02-04T07:46:32.490Z,42.53
2018-02-04T07:48:59.905Z,36.90
2018-02-04T07:51:27.426Z,35.15
2018-02-04T07:53:54.863Z,38.70
2018-02-04T07:56:22.385Z,36.70
2018-02-04T07:58:49.868Z,39.78
2018-02-04T08:01:17.280Z,36.63
2018-02-04T08:03:44.761Z,38.50
2018-02-04T08:06:12.178Z,37.50
2018-02-04T08:08:39.585Z,37.60
2018-02-04T08:11:07.010Z,39.15
2018-02-04T08:13:34.422Z,38.25
2018-02-04T08:16:01.951Z,37.67
2018-02-04T08:18:29.369Z,36.38
2018-02-04T08:20:56.798Z,41.80
2018-02-04T08:23:24.221Z,46.42
2018-02-04T08:25:52.420Z,34.30
2018-02-04T08:28:20.598Z,34.17
2018-02-04T08:30:48.039Z,33.50
2018-02-04T08:33:15.445Z,31.95
2018-02-04T08:35:43.665Z,28.17
2018-02-04T08:38:11.138Z,32.88
2018-02-04T08:40:38.545Z,29.60
2018-02-04T08:43:05.962Z,27.75
2018-02-04T08:45:33.390Z,26.92
2018-02-04T08:48:00.805Z,24.50
2018-02-04T08:50:28.226Z,27.45
2018-02-04T08:52:55.646Z,35.60
2018-02-04T08:55:23.113Z,29.80
2018-02-04T08:57:50.573Z,31.30
2018-02-04T09:00:18.001Z,28.98
2018-02-04T09:02:45.665Z,28.85
2018-02-04T09:05:13.062Z,26.17
2018-02-04T09:07:41.247Z,28.48
2018-02-04T09:10:09.413Z,30.92
2018-02-04T09:12:36.829Z,30.00
2018-02-04T09:15:04.295Z,18.08
2018-02-04T09:17:31.694Z,31.15
2018-02-04T09:19:59.157Z,28.73
2018-02-04T09:22:26.564Z,29.15
2018-02-04T09:24:54.745Z,29.83
2018-02-04T09:27:22.249Z,31.80
2018-02-04T09:29:49.674Z,34.17
2018-02-04T09:32:18.589Z,29.77
2018-02-04T09:34:46.779Z,28.00
2018-02-04T09:37:14.958Z,37.92
2018-02-04T09:39:43.173Z,31.77
2018-02-04T09:42:10.652Z,37.10
2018-02-04T09:44:38.065Z,33.15
2018-02-04T09:47:05.487Z,34.63
2018-02-04T09:49:32.902Z,31.92
2018-02-04T09:52:00.337Z,32.78
2018-02-04T09:54:27.771Z,33.00
2018-02-04T09:56:55.941Z,36.05
2018-02-04T09:59:24.175Z,30.27
2018-02-04T10:01:51.589Z,34.13
2018-02-04T10:04:19.019Z,39.35
2018-02-04T10:06:46.469Z,43.90
2018-02-04T10:09:14.044Z,32.33
2018-02-04T10:11:42.286Z,34.88
2018-02-04T10:14:09.662Z,36.70
2018-02-04T10:16:37.852Z,36.88
2018-02-04T10:19:06.025Z,38.60
2018-02-04T10:21:33.463Z,41.33
2018-02-04T10:24:00.940Z,43.20
2018-02-04T10:26:28.349Z,37.65
2018-02-04T10:28:56.566Z,34.95
2018-02-04T10:31:24.004Z,35.35
2018-02-04T10:33:52.225Z,36.65
2018-02-04T10:36:19.656Z,42.72
2018-02-04T10:38:47.878Z,39.22
2018-02-04T10:41:15.293Z,35.50
2018-02-04T10:43:42.724Z,41.13
2018-02-04T10:46:10.125Z,38.90
2018-02-04T10:48:38.305Z,42.80
2018-02-04T10:51:11.554Z,37.30
2018-02-04T10:53:38.974Z,36.67
2018-02-04T10:56:06.475Z,37.92
2018-02-04T10:58:34.655Z,36.72
2018-02-04T11:01:02.841Z,36.70
2018-02-04T11:03:31.049Z,34.00
2018-02-04T11:05:58.461Z,21.65
2018-02-04T11:08:25.925Z,35.88
2018-02-04T11:10:53.356Z,36.97
2018-02-04T11:13:20.769Z,37.08
2018-02-04T11:15:48.273Z,33.60
2018-02-04T11:18:16.456Z,34.45
2018-02-04T11:20:44.648Z,33.20
2018-02-04T11:23:12.853Z,30.30
2018-02-04T11:25:40.267Z,32.85
2018-02-04T11:28:07.706Z,30.73
2018-02-04T11:30:35.164Z,30.10
2018-02-04T11:33:02.586Z,27.42
2018-02-04T11:35:30.109Z,27.20
2018-02-04T11:37:57.533Z,24.70
2018-02-04T11:40:25.031Z,21.73
2018-02-04T11:42:52.463Z,24.12
2018-02-04T11:45:19.886Z,24.48
2018-02-04T11:47:47.306Z,21.50
2018-02-04T11:50:15.517Z,21.77
2018-02-04T11:52:42.938Z,27.50
2018-02-04T11:55:10.362Z,25.20
2018-02-04T11:57:37.804Z,20.70
2018-02-04T12:00:06.006Z,21.73
2018-02-04T12:02:33.425Z,18.63
2018-02-04T12:05:00.854Z,18.00
2018-02-04T12:07:28.268Z,19.83
2018-02-04T12:09:55.716Z,17.73
2018-02-04T12:12:23.167Z,22.60
2018-02-04T12:14:50.577Z,20.27
2018-02-04T12:17:18.011Z,18.43
2018-02-04T12:19:45.437Z,24.77
2018-02-04T12:22:13.643Z,21.17
2018-02-04T12:24:41.061Z,19.50
2018-02-04T12:27:08.473Z,19.33
2018-02-04T12:29:35.898Z,20.23
2018-02-04T12:32:03.314Z,20.53
2018-02-04T12:34:30.751Z,22.23
2018-02-04T12:36:58.997Z,19.95
2018-02-04T12:39:26.405Z,20.90
2018-02-04T12:41:54.612Z,20.08
2018-02-04T12:44:22.071Z,18.73
2018-02-04T12:46:49.494Z,20.37
2018-02-04T12:49:16.914Z,21.87
2018-02-04T12:51:45.097Z,22.87
2018-02-04T12:54:13.289Z,24.60
2018-02-04T12:56:41.506Z,23.25
2018-02-04T12:59:08.913Z,22.77
2018-02-04T13:01:36.343Z,22.80
2018-02-04T13:04:03.761Z,36.85
2018-02-04T13:06:31.189Z,21.10
2018-02-04T13:08:58.677Z,21.90
2018-02-04T13:11:26.093Z,20.87
2018-02-04T13:13:53.512Z,19.53
2018-02-04T13:16:20.928Z,18.67
2018-02-04T13:18:48.393Z,20.40
2018-02-04T13:21:15.943Z,20.55
2018-02-04T13:23:43.336Z,21.83
2018-02-04T13:26:10.786Z,24.90
2018-02-04T13:28:38.215Z,20.37
2018-02-04T13:31:05.690Z,21.58
2018-02-04T13:33:33.114Z,22.00
2018-02-04T13:36:00.533Z,23.70
2018-02-04T13:38:28.006Z,22.98
2018-02-04T13:40:55.463Z,23.67
2018-02-04T13:43:23.640Z,22.17
2018-02-04T13:45:51.862Z,20.85
2018-02-04T13:48:19.308Z,21.92
2018-02-04T13:50:46.712Z,23.80
2018-02-04T13:53:14.145Z,24.63
2018-02-04T13:55:41.602Z,27.25
2018-02-04T13:58:09.030Z,26.58
2018-02-04T14:00:36.437Z,22.85
2018-02-04T14:03:03.858Z,17.62
2018-02-04T14:05:31.382Z,19.10
2018-02-04T14:07:58.851Z,16.12
2018-02-04T14:10:26.337Z,14.90
2018-02-04T14:12:53.811Z,17.45
2018-02-04T14:15:21.211Z,15.77
2018-02-04T14:17:48.662Z,18.37
2018-02-04T14:20:16.074Z,18.15
2018-02-04T14:22:44.313Z,16.25
2018-02-04T14:25:11.717Z,20.35
2018-02-04T14:27:39.148Z,22.23
2018-02-04T14:30:06.593Z,17.58
2018-02-04T14:32:34.010Z,18.52
2018-02-04T14:35:02.926Z,19.23
2018-02-04T14:37:30.339Z,22.00
2018-02-04T14:39:58.517Z,21.25
2018-02-04T14:42:25.950Z,19.40
2018-02-04T14:44:54.146Z,18.67
2018-02-04T14:47:22.373Z,20.77
2018-02-04T14:49:49.818Z,18.33
2018-02-04T14:52:17.232Z,20.98
2018-02-04T14:54:44.638Z,20.48
2018-02-04T14:57:12.115Z,20.50
2018-02-04T14:59:39.482Z,20.95
2018-02-04T15:02:06.950Z,23.15
2018-02-04T15:04:34.384Z,17.15
2018-02-04T15:07:01.774Z,19.45
2018-02-04T15:09:29.949Z,22.10
2018-02-04T15:11:58.127Z,20.52
2018-02-04T15:14:25.558Z,25.73
2018-02-04T15:16:52.989Z,21.83
2018-02-04T15:19:20.421Z,19.35
2018-02-04T15:21:48.073Z,22.10
2018-02-04T15:24:15.485Z,19.37
2018-02-04T15:26:42.970Z,20.75
2018-02-04T15:29:10.406Z,24.83
2018-02-04T15:31:37.924Z,19.90
2018-02-04T15:34:05.330Z,25.45
2018-02-04T15:36:32.856Z,19.75
2018-02-04T15:39:00.311Z,21.95
2018-02-04T15:41:28.487Z,21.77
2018-02-04T15:43:56.721Z,21.20
2018-02-04T15:46:24.165Z,19.37
2018-02-04T15:48:52.323Z,21.67
2018-02-04T15:51:20.506Z,22.95
2018-02-04T15:53:48.699Z,20.50
2018-02-04T15:56:16.881Z,24.15
2018-02-04T15:58:45.064Z,25.55
2018-02-04T16:01:13.245Z,21.15
2018-02-04T16:03:40.648Z,23.50
2018-02-04T16:06:08.056Z,22.50
2018-02-04T16:08:35.607Z,22.55
2018-02-04T16:11:03.009Z,23.00
2018-02-04T16:13:30.537Z,32.00
2018-02-04T16:15:57.997Z,25.17
2018-02-04T16:18:25.466Z,27.67
2018-02-04T16:20:52.881Z,28.83
2018-02-04T16:23:20.401Z,28.80
2018-02-04T16:25:47.929Z,27.65
2018-02-04T16:28:15.290Z,26.27
2018-02-04T16:30:42.765Z,28.50
2018-02-04T16:33:10.178Z,29.05
2018-02-04T16:35:37.589Z,26.92
2018-02-04T16:38:05.030Z,26.12
2018-02-04T16:40:32.455Z,30.40
2018-02-04T16:42:59.854Z,27.10
2018-02-04T16:45:27.311Z,26.20
2018-02-04T16:47:54.734Z,24.70
2018-02-04T16:50:22.194Z,24.37
2018-02-04T16:52:49.642Z,25.12
2018-02-04T16:55:17.187Z,27.70
2018-02-04T16:57:45.373Z,26.85
2018-02-04T17:00:12.812Z,25.23
2018-02-04T17:02:40.991Z,23.23
2018-02-04T17:05:09.919Z,27.25
2018-02-04T17:07:38.107Z,28.02
2018-02-04T17:10:05.531Z,24.70
2018-02-04T17:12:32.953Z,25.00
2018-02-04T17:15:00.377Z,22.67
2018-02-04T17:17:27.804Z,29.15
2018-02-04T17:19:55.258Z,28.35
2018-02-04T17:22:22.724Z,30.48
2018-02-04T17:24:50.316Z,23.77
2018-02-04T17:27:17.713Z,26.67
2018-02-04T17:29:45.138Z,24.95
2018-02-04T17:32:12.565Z,22.77
2018-02-04T17:34:39.972Z,23.75
2018-02-04T17:37:07.389Z,23.15
2018-02-04T17:39:34.816Z,25.15
2018-02-04T17:42:02.254Z,23.92
2018-02-04T17:44:30.449Z,28.10
2018-02-04T17:46:57.862Z,28.95
2018-02-04T17:49:26.042Z,27.33
2018-02-04T17:51:53.467Z,28.12
2018-02-04T17:54:20.922Z,24.10
2018-02-04T17:56:49.103Z,23.73
2018-02-04T17:59:17.292Z,23.80
2018-02-04T18:01:45.514Z,29.00
2018-02-04T18:04:12.961Z,29.30
2018-02-04T18:06:41.551Z,27.55
2018-02-04T18:09:09.721Z,29.83
2018-02-04T18:11:37.909Z,32.20
2018-02-04T18:14:06.094Z,25.70
2018-02-04T18:16:33.605Z,25.23
2018-02-04T18:19:01.032Z,26.23
2018-02-04T18:21:28.465Z,30.17
2018-02-04T18:23:55.889Z,26.35
2018-02-04T18:26:23.341Z,27.52
2018-02-04T18:28:51.521Z,28.73
2018-02-04T18:31:19.753Z,28.48
2018-02-04T18:33:47.166Z,27.35
2018-02-04T18:36:14.577Z,29.40
2018-02-04T18:38:41.993Z,28.55
2018-02-04T18:41:09.407Z,28.05
2018-02-04T18:43:37.449Z,27.87
2018-02-04T18:46:05.648Z,27.87
2018-02-04T18:48:34.586Z,30.33
2018-02-04T18:51:02.014Z,27.20
2018-02-04T18:53:29.525Z,27.27
2018-02-04T18:55:57.002Z,30.58
2018-02-04T18:58:24.437Z,29.80
2018-02-04T19:00:52.648Z,32.47
2018-02-04T19:03:20.062Z,25.88
2018-02-04T19:05:47.590Z,25.25
2018-02-04T19:08:15.052Z,24.37
2018-02-04T19:10:42.469Z,25.50
2018-02-04T19:13:10.644Z,27.67
2018-02-04T19:15:38.065Z,22.90
2018-02-04T19:18:06.242Z,27.10
2018-02-04T19:20:34.442Z,27.15
2018-02-04T19:23:01.878Z,28.77
2018-02-04T19:25:29.303Z,27.10
2018-02-04T19:27:56.714Z,29.15
2018-02-04T19:30:24.209Z,30.33
2018-02-04T19:32:52.391Z,32.42
2018-02-04T19:35:20.581Z,30.25
2018-02-04T19:37:48.003Z,26.90
2018-02-04T19:40:15.412Z,31.92
2018-02-04T19:42:42.898Z,28.50
2018-02-04T19:45:11.054Z,30.00
2018-02-04T19:47:39.373Z,35.28
2018-02-04T19:50:07.536Z,30.20
2018-02-04T19:52:36.916Z,34.30
2018-02-04T19:55:04.342Z,30.20
2018-02-04T19:57:32.661Z,30.15
2018-02-04T20:00:00.071Z,33.03
2018-02-04T20:02:27.472Z,32.15
2018-02-04T20:04:54.946Z,35.28
2018-02-04T20:07:22.379Z,32.80
2018-02-04T20:09:49.828Z,32.55
2018-02-04T20:12:17.238Z,35.30
2018-02-04T20:14:44.658Z,31.73
2018-02-04T20:17:12.928Z,32.22
2018-02-04T20:19:40.376Z,32.50
2018-02-04T20:22:07.777Z,35.25
2018-02-04T20:24:35.300Z,30.15
2018-02-04T20:27:02.734Z,30.75
2018-02-04T20:29:30.161Z,36.13
2018-02-04T20:31:57.592Z,32.40
2018-02-04T20:34:36.950Z,29.92
2018-02-04T20:37:05.281Z,34.72
2018-02-04T20:39:32.698Z,27.52
2018-02-04T20:42:00.143Z,33.17
2018-02-04T20:44:27.654Z,35.42
2018-02-04T20:46:55.083Z,36.05
2018-02-04T20:49:23.261Z,33.50
2018-02-04T20:51:50.718Z,33.58
2018-02-04T20:54:18.131Z,36.15
2018-02-04T20:56:45.546Z,33.08
2018-02-04T20:59:12.990Z,35.60
2018-02-04T21:01:40.408Z,35.03
2018-02-04T21:04:07.960Z,36.10
2018-02-04T21:06:35.345Z,34.55
2018-02-04T21:09:02.771Z,38.63
2018-02-04T21:11:30.192Z,36.30
2018-02-04T21:13:58.444Z,34.53
2018-02-04T21:16:25.838Z,37.17
2018-02-04T21:18:53.262Z,34.10
2018-02-04T21:21:20.721Z,41.20
2018-02-04T21:23:48.154Z,34.97
2018-02-04T21:26:16.358Z,37.78
2018-02-04T21:28:43.809Z,37.30
2018-02-04T21:31:11.983Z,35.72
2018-02-04T21:33:40.203Z,40.88
2018-02-04T21:36:07.624Z,43.38
2018-02-04T21:38:35.873Z,39.72
2018-02-04T21:41:03.281Z,35.85
2018-02-04T21:43:30.710Z,41.30
2018-02-04T21:45:58.133Z,40.85
2018-02-04T21:48:26.350Z,42.22
2018-02-04T21:50:53.765Z,37.42
2018-02-04T21:53:21.188Z,40.92
2018-02-04T21:55:48.617Z,36.40
2018-02-04T21:58:16.114Z,43.67
2018-02-04T22:00:43.530Z,46.20
2018-02-04T22:03:10.953Z,43.38
2018-02-04T22:05:38.377Z,40.80
2018-02-04T22:08:07.355Z,46.22
2018-02-04T22:10:34.783Z,46.20
2018-02-04T22:13:02.182Z,50.05
2018-02-04T22:15:29.603Z,43.83
2018-02-04T22:17:57.005Z,55.38
2018-02-04T22:20:24.417Z,45.83
2018-02-04T22:22:51.887Z,57.00
2018-02-04T22:25:20.872Z,63.08
2018-02-04T22:27:48.289Z,51.58
2018-02-04T22:30:16.468Z,52.47
2018-02-04T22:32:44.682Z,53.17
2018-02-04T22:35:12.103Z,55.50
2018-02-04T22:37:39.510Z,53.63
2018-02-04T22:40:06.933Z,55.47
2018-02-04T22:42:34.453Z,57.40
2018-02-04T22:45:01.867Z,65.62
2018-02-04T22:47:29.302Z,58.75
2018-02-04T22:49:56.717Z,59.22
2018-02-04T22:52:24.126Z,56.70
2018-02-04T22:54:51.592Z,56.63
2018-02-04T22:57:19.755Z,61.35
2018-02-04T22:59:47.949Z,56.25
2018-02-04T23:02:16.117Z,62.97
2018-02-04T23:04:43.580Z,59.45
2018-02-04T23:07:10.994Z,59.38
2018-02-04T23:09:38.467Z,62.85
2018-02-04T23:12:05.905Z,59.95
2018-02-04T23:14:34.101Z,59.95
2018-02-04T23:17:02.303Z,72.35
2018-02-04T23:19:29.722Z,68.28
2018-02-04T23:21:57.146Z,64.32
2018-02-04T23:24:24.573Z,70.55
2018-02-04T23:26:52.138Z,80.87
2018-02-04T23:29:19.533Z,73.20
2018-02-04T23:31:46.961Z,73.93
2018-02-04T23:34:14.374Z,71.68
2018-02-04T23:36:41.801Z,78.37
2018-02-04T23:39:09.210Z,64.43
2018-02-04T23:41:36.657Z,70.07
2018-02-04T23:44:04.067Z,73.75
2018-02-04T23:46:31.501Z,69.60
2018-02-04T23:48:59.704Z,72.55
2018-02-04T23:51:27.915Z,69.18
2018-02-04T23:53:55.338Z,66.20
2018-02-04T23:56:23.562Z,71.25
2018-02-04T23:58:50.994Z,62.58
